Time;durP1;ratioP1;P1;durP2;ratioP2;P2;SDS_P1;SDS_P2;PMS_P1;PMS_P2;Temp;Humidity;BMP_temperature;BMP_pressure;BME280_temperature;BME280_humidity;BME280_pressure;Samples;Min_cycle;Max_cycle;Signal;HPM_P1;HPM_P2
2021/10/25 00:00:27;;;;;;;12.30;5.93;;;;;;;4.50;100.00;101751.72;2107179;28;20027;-63
2021/10/25 00:01:31;;;;;;;8.57;5.93;;;;;;;4.49;100.00;101755.16;2107054;28;20020;-63
2021/10/25 00:02:31;;;;;;;11.40;5.38;;;;;;;4.53;100.00;101753.44;2106564;28;20008;-63
2021/10/25 00:03:31;;;;;;;10.10;6.23;;;;;;;4.57;100.00;101753.41;2106519;28;20074;-63
2021/10/25 00:04:32;;;;;;;8.80;5.73;;;;;;;4.57;100.00;101755.13;2107120;28;20020;-64
2021/10/25 00:05:33;;;;;;;8.13;5.32;;;;;;;4.53;100.00;101751.72;2107071;28;20103;-64
2021/10/25 00:06:33;;;;;;;12.00;5.77;;;;;;;4.48;100.00;101758.63;2106377;28;20030;-63
2021/10/25 00:07:33;;;;;;;9.23;6.10;;;;;;;4.46;100.00;101748.28;2106446;28;20027;-63
2021/10/25 00:08:33;;;;;;;8.53;5.90;;;;;;;4.48;100.00;101754.28;2107072;28;20094;-63
2021/10/25 00:09:34;;;;;;;13.40;6.63;;;;;;;4.47;100.00;101757.75;2106247;28;20016;-63
2021/10/25 00:10:34;;;;;;;9.30;5.87;;;;;;;4.41;100.00;101747.41;2106482;28;20028;-64
2021/10/25 00:11:34;;;;;;;11.97;5.47;;;;;;;4.38;100.00;101748.28;2107045;28;20385;-63
2021/10/25 00:12:35;;;;;;;7.20;5.40;;;;;;;4.37;100.00;101750.88;2106274;28;20020;-63
2021/10/25 00:13:35;;;;;;;9.35;5.93;;;;;;;4.38;100.00;101747.44;2106442;28;20028;-62
2021/10/25 00:14:36;;;;;;;9.40;6.60;;;;;;;4.42;100.00;101749.16;2107063;28;20590;-63
2021/10/25 00:15:37;;;;;;;10.00;7.43;;;;;;;4.40;100.00;101750.00;2107049;28;20016;-63
2021/10/25 00:16:38;;;;;;;9.70;6.22;;;;;;;4.38;100.00;101753.44;2106338;28;20042;-62
2021/10/25 00:17:39;;;;;;;9.32;5.00;;;;;;;4.38;100.00;101747.44;2106963;28;20024;-62
2021/10/25 00:18:39;;;;;;;8.80;5.85;;;;;;;4.41;100.00;101749.16;2106962;28;20034;-63
2021/10/25 00:19:40;;;;;;;7.90;5.43;;;;;;;4.43;100.00;101750.88;2107008;28;20385;-63
2021/10/25 00:20:40;;;;;;;9.47;4.93;;;;;;;4.43;100.00;101752.59;2107102;28;20065;-63
2021/10/25 00:21:41;;;;;;;9.65;5.72;;;;;;;4.40;100.00;101750.00;2106435;28;20020;-63
2021/10/25 00:22:41;;;;;;;9.60;6.18;;;;;;;4.36;100.00;101750.03;2106958;28;20020;-64
2021/10/25 00:23:42;;;;;;;8.73;5.73;;;;;;;4.35;100.00;101745.69;2106859;28;20024;-63
2021/10/25 00:24:42;;;;;;;10.80;6.17;;;;;;;4.35;100.00;101739.69;2106831;28;20542;-63
2021/10/25 00:25:43;;;;;;;11.25;5.97;;;;;;;4.32;100.00;101748.31;2106989;28;20028;-62
2021/10/25 00:26:43;;;;;;;15.33;6.13;;;;;;;4.31;100.00;101753.47;2106981;28;20035;-62
2021/10/25 00:27:44;;;;;;;9.37;5.30;;;;;;;4.35;100.00;101747.44;2106255;28;20028;-62
2021/10/25 00:28:44;;;;;;;11.60;6.03;;;;;;;4.38;100.00;101748.28;2106376;28;20023;-63
2021/10/25 00:29:44;;;;;;;9.20;6.23;;;;;;;4.41;100.00;101756.91;2106934;28;20332;-63
2021/10/25 00:30:45;;;;;;;12.03;6.77;;;;;;;4.41;100.00;101742.25;2106889;28;20016;-64
2021/10/25 00:31:45;;;;;;;9.50;5.40;;;;;;;4.38;100.00;101750.03;2106123;28;20022;-64
2021/10/25 00:32:45;;;;;;;12.83;5.93;;;;;;;4.37;100.00;101745.69;2106351;28;20024;-64
2021/10/25 00:33:45;;;;;;;8.97;5.90;;;;;;;4.41;100.00;101752.59;2106839;28;20065;-64
2021/10/25 00:34:46;;;;;;;9.10;6.27;;;;;;;4.44;100.00;101746.53;2106922;28;20051;-63
2021/10/25 00:35:46;;;;;;;9.83;6.67;;;;;;;4.46;100.00;101737.94;2107111;28;20016;-64
2021/10/25 00:36:47;;;;;;;7.80;6.25;;;;;;;4.47;100.00;101746.53;2106808;28;20236;-64
2021/10/25 00:37:48;;;;;;;12.00;5.97;;;;;;;4.45;100.00;101737.94;2106923;28;20493;-64
2021/10/25 00:38:48;;;;;;;12.60;5.47;;;;;;;4.43;100.00;101739.66;2106259;28;20273;-64
2021/10/25 00:39:48;;;;;;;8.53;5.83;;;;;;;4.43;100.00;101734.50;2106442;28;20016;-64
2021/10/25 00:40:49;;;;;;;9.63;5.87;;;;;;;4.38;100.00;101737.94;2106886;28;20020;-63
2021/10/25 00:41:49;;;;;;;10.03;6.20;;;;;;;4.43;100.00;101745.69;2106916;28;20028;-64
2021/10/25 00:42:49;;;;;;;10.03;4.73;;;;;;;4.45;100.00;101743.13;2106901;28;20483;-64
2021/10/25 00:43:50;;;;;;;8.67;5.43;;;;;;;4.40;100.00;101740.53;2106913;28;20362;-65
2021/10/25 00:44:50;;;;;;;8.68;4.90;;;;;;;4.40;100.00;101739.66;2106156;28;20068;-64
2021/10/25 00:45:51;;;;;;;9.20;6.03;;;;;;;4.43;100.00;101734.50;2106220;28;20042;-64
2021/10/25 00:46:51;;;;;;;10.83;5.97;;;;;;;4.45;100.00;101735.38;2106840;28;20043;-64
2021/10/25 00:47:52;;;;;;;10.77;5.57;;;;;;;4.40;100.00;101739.66;2106804;28;20059;-63
2021/10/25 00:48:52;;;;;;;8.80;5.80;;;;;;;4.37;100.00;101741.41;2106218;28;20448;-63
2021/10/25 00:49:53;;;;;;;7.83;4.47;;;;;;;4.42;100.00;101735.38;2106239;28;20028;-63
2021/10/25 00:50:53;;;;;;;8.80;5.33;;;;;;;4.46;100.00;101737.06;2106744;28;20073;-63
2021/10/25 00:51:54;;;;;;;9.70;5.27;;;;;;;4.45;100.00;101733.63;2106782;28;20027;-64
2021/10/25 00:52:55;;;;;;;8.27;4.93;;;;;;;4.43;100.00;101729.31;2106764;28;20035;-63
2021/10/25 00:53:55;;;;;;;10.33;5.90;;;;;;;4.47;100.00;101731.03;2106793;28;20497;-63
2021/10/25 00:54:56;;;;;;;8.57;5.00;;;;;;;4.50;100.00;101736.19;2106781;28;20485;-63
2021/10/25 00:55:56;;;;;;;6.73;4.37;;;;;;;4.52;100.00;101729.31;2106841;28;20401;-64
2021/10/25 00:56:57;;;;;;;11.70;4.93;;;;;;;4.50;100.00;101724.16;2106829;28;20020;-64
2021/10/25 00:57:58;;;;;;;8.35;5.38;;;;;;;4.51;100.00;101727.56;2106722;28;20494;-63
2021/10/25 00:58:58;;;;;;;9.90;5.53;;;;;;;4.50;100.00;101731.03;2106179;28;20102;-63
2021/10/25 00:59:59;;;;;;;7.20;5.33;;;;;;;4.50;100.00;101737.06;2106226;28;20233;-63
2021/10/25 01:00:59;;;;;;;14.50;5.20;;;;;;;4.50;100.00;101731.91;2106696;28;20623;-63
2021/10/25 01:02:00;;;;;;;8.73;5.50;;;;;;;4.50;100.00;101728.44;2106684;28;20020;-63
2021/10/25 01:03:01;;;;;;;10.03;5.00;;;;;;;4.51;100.00;101730.16;2106791;28;20539;-64
2021/10/25 01:04:02;;;;;;;7.93;5.38;;;;;;;4.51;100.00;101732.75;2106820;28;20516;-64
2021/10/25 01:05:03;;;;;;;;;;;;;;;4.48;100.00;101736.19;2107157;28;20023;-64
2021/10/25 01:06:05;;;;;;;9.10;4.40;;;;;;;4.47;100.00;101736.19;2106690;28;19908;-64
2021/10/25 01:07:05;;;;;;;7.88;4.40;;;;;;;4.50;100.00;101731.03;2106872;28;20035;-63
2021/10/25 01:08:06;;;;;;;9.20;5.17;;;;;;;4.56;100.00;101731.03;2106690;28;20086;-64
2021/10/25 01:09:07;;;;;;;9.63;5.10;;;;;;;4.55;100.00;101734.44;2106755;28;20024;-63
2021/10/25 01:10:08;;;;;;;8.15;4.72;;;;;;;4.55;100.00;101729.28;2106626;28;20055;-63
2021/10/25 01:11:08;;;;;;;9.57;5.25;;;;;;;4.55;100.00;101729.28;2106757;28;20024;-64
2021/10/25 01:12:10;;;;;;;9.52;5.70;;;;;;;4.55;100.00;101726.69;2106647;28;20028;-64
2021/10/25 01:13:10;;;;;;;;;;;;;;;4.55;100.00;101724.13;2107071;28;20028;-64
2021/10/25 01:14:10;;;;;;;5.55;3.75;;;;;;;4.57;100.00;101724.97;2107961;28;19974;-64
2021/10/25 01:15:11;;;;;;;9.87;5.43;;;;;;;4.60;100.00;101722.41;2108525;28;20031;-64
2021/10/25 01:16:11;;;;;;;8.20;5.00;;;;;;;4.63;100.00;101719.78;2108433;28;20027;-64
2021/10/25 01:17:11;;;;;;;7.80;4.37;;;;;;;4.64;100.00;101721.50;2108438;28;20477;-64
2021/10/25 01:18:12;;;;;;;11.30;4.00;;;;;;;4.63;100.00;101730.13;2108513;28;20073;-64
2021/10/25 01:19:12;;;;;;;9.35;5.32;;;;;;;4.61;100.00;101729.28;2108415;28;20024;-64
2021/10/25 01:20:13;;;;;;;8.80;4.93;;;;;;;4.62;100.00;101728.41;2108398;28;20510;-64
2021/10/25 01:21:13;;;;;;;8.37;5.87;;;;;;;4.64;100.00;101733.56;2107699;28;20020;-64
2021/10/25 01:22:19;;;;;;;9.70;4.93;;;;;;;4.63;100.00;101730.13;2107775;28;20085;-64
2021/10/25 01:23:20;;;;;;;8.85;4.63;;;;;;;4.64;100.00;101729.28;2108526;28;20028;-64
2021/10/25 01:24:20;;;;;;;5.95;4.57;;;;;;;4.67;100.00;101728.41;2107685;28;20020;-65
2021/10/25 01:25:22;;;;;;;7.07;4.67;;;;;;;4.67;100.00;101724.94;2107763;28;20039;-64
2021/10/25 01:26:23;;;;;;;9.32;5.47;;;;;;;4.72;100.00;101726.66;2108407;28;20031;-64
2021/10/25 01:27:23;;;;;;;8.32;4.70;;;;;;;4.78;100.00;101725.75;2108408;28;20020;-64
2021/10/25 01:28:23;;;;;;;7.50;5.03;;;;;;;4.81;100.00;101725.75;2108468;28;20058;-64
2021/10/25 01:29:24;;;;;;;12.07;6.07;;;;;;;4.84;100.00;101724.88;2108473;28;20047;-64
2021/10/25 01:30:24;;;;;;;6.97;4.00;;;;;;;4.85;99.82;101727.47;2108448;28;20388;-64
2021/10/25 01:31:24;;;;;;;13.70;5.10;;;;;;;4.87;99.88;101725.75;2108616;28;20020;-65
2021/10/25 01:32:25;;;;;;;8.43;4.73;;;;;;;4.89;99.69;101726.59;2108495;28;20042;-63
2021/10/25 01:33:27;;;;;;;9.07;4.80;;;;;;;4.94;99.91;101725.69;2108703;28;20532;-64
2021/10/25 01:34:28;;;;;;;9.18;5.18;;;;;;;4.97;99.48;101726.56;2108525;28;20024;-64
2021/10/25 01:35:28;;;;;;;7.60;3.80;;;;;;;5.02;99.25;101726.53;2108377;28;20028;-64
2021/10/25 01:36:28;;;;;;;7.10;4.33;;;;;;;5.03;99.14;101723.94;2108220;28;20052;-65
2021/10/25 01:37:28;;;;;;;6.50;4.37;;;;;;;5.04;99.44;101722.22;2108410;28;20032;-64
2021/10/25 01:38:29;;;;;;;12.83;4.97;;;;;;;5.05;98.64;101723.94;2108297;28;20606;-63
2021/10/25 01:39:29;;;;;;;6.83;4.70;;;;;;;5.08;99.04;101718.75;2108220;28;20032;-63
2021/10/25 01:40:30;;;;;;;6.77;4.40;;;;;;;5.10;98.74;101711.81;2107556;28;20046;-63
2021/10/25 01:41:30;;;;;;;9.30;5.03;;;;;;;5.12;99.08;101714.41;2107615;28;20416;-64
2021/10/25 01:42:31;;;;;;;6.77;4.53;;;;;;;5.10;98.49;101716.16;2108305;28;20560;-64
2021/10/25 01:43:32;;;;;;;9.82;4.85;;;;;;;5.14;98.73;101708.34;2108214;28;20023;-64
2021/10/25 01:44:34;;;;;;;15.70;6.22;;;;;;;5.13;98.42;101716.97;2108227;28;20019;-64
2021/10/25 01:45:34;;;;;;;8.02;5.00;;;;;;;5.12;98.19;101714.41;2108248;28;20095;-67
2021/10/25 01:46:35;;;;;;;8.63;4.73;;;;;;;5.09;98.23;101717.88;2108151;28;20465;-67
2021/10/25 01:47:36;;;;;;;7.97;4.82;;;;;;;5.09;98.35;101709.22;2108204;28;20473;-67
2021/10/25 01:48:37;;;;;;;8.52;4.88;;;;;;;5.09;98.16;101711.81;2108280;28;20024;-67
2021/10/25 01:49:37;;;;;;;6.50;4.90;;;;;;;5.12;98.35;101709.22;2108219;28;20027;-66
2021/10/25 01:50:37;;;;;;;9.53;4.00;;;;;;;5.14;98.62;101713.50;2108284;28;20026;-66
2021/10/25 01:51:38;;;;;;;9.20;3.93;;;;;;;5.17;98.09;101711.78;2108290;28;20358;-68
2021/10/25 01:52:38;;;;;;;9.52;5.22;;;;;;;5.20;98.44;101711.78;2108186;28;20056;-66
2021/10/25 01:53:39;;;;;;;8.07;4.67;;;;;;;5.21;98.26;101713.50;2108471;28;20043;-68
2021/10/25 01:54:40;;;;;;;9.37;4.63;;;;;;;5.24;98.07;101710.91;2108219;28;20053;-67
2021/10/25 01:55:40;;;;;;;9.35;4.80;;;;;;;5.25;98.20;101710.00;2108138;28;20278;-67
2021/10/25 01:56:42;;;;;;;5.23;4.23;;;;;;;5.27;97.82;101708.28;2108172;28;20050;-67
2021/10/25 01:57:42;;;;;;;8.05;4.38;;;;;;;5.30;98.17;101708.25;2108150;28;20054;-67
2021/10/25 01:58:43;;;;;;;13.30;6.60;;;;;;;5.37;98.18;101711.69;2107397;28;20035;-66
2021/10/25 01:59:43;;;;;;;8.10;5.10;;;;;;;5.41;97.87;101706.44;2107570;28;20520;-66
2021/10/25 02:00:44;;;;;;;9.33;5.83;;;;;;;5.45;98.05;101709.03;2107574;28;20032;-67
2021/10/25 02:01:45;;;;;;;8.30;5.00;;;;;;;5.50;97.66;101715.88;2107484;28;20028;-67
2021/10/25 02:02:45;;;;;;;8.63;4.43;;;;;;;5.52;97.38;101708.13;2099137;28;20115;-67
2021/10/25 02:03:45;;;;;;;8.67;4.67;;;;;;;5.54;97.08;101714.13;2107581;28;20020;-68
2021/10/25 02:04:46;;;;;;;8.93;4.90;;;;;;;5.56;97.38;101708.94;2108036;28;20473;-66
2021/10/25 02:05:46;;;;;;;6.10;4.00;;;;;;;5.58;97.44;101715.81;2108134;28;20020;-68
2021/10/25 02:06:46;;;;;;;6.93;3.90;;;;;;;5.62;97.10;101708.91;2107963;28;20016;-66
2021/10/25 02:07:47;;;;;;;7.20;4.60;;;;;;;5.65;96.50;101714.91;2108059;28;20357;-68
2021/10/25 02:08:47;;;;;;;8.88;5.35;;;;;;;5.68;97.07;101711.44;2108036;28;20085;-67
2021/10/25 02:09:48;;;;;;;8.57;3.77;;;;;;;5.68;96.20;101711.44;2108176;28;20066;-67
2021/10/25 02:10:48;;;;;;;5.97;3.83;;;;;;;5.70;96.73;101706.25;2107986;28;20024;-67
2021/10/25 02:11:48;;;;;;;7.77;3.97;;;;;;;5.71;96.79;101707.97;2108037;28;20103;-67
2021/10/25 02:12:49;;;;;;;12.83;4.70;;;;;;;5.73;96.66;101714.00;2108089;28;20024;-68
2021/10/25 02:13:49;;;;;;;9.37;4.43;;;;;;;5.73;96.49;101707.09;2108157;28;20046;-67
2021/10/25 02:14:50;;;;;;;7.90;4.83;;;;;;;5.75;96.25;101707.09;2108014;28;20030;-66
2021/10/25 02:15:50;;;;;;;8.32;4.55;;;;;;;5.76;96.32;101701.03;2107414;28;20024;-66
2021/10/25 02:16:50;;;;;;;10.33;4.63;;;;;;;5.79;96.08;101711.38;2107454;28;20372;-67
2021/10/25 02:17:51;;;;;;;8.20;4.97;;;;;;;5.81;95.87;101699.25;2108034;28;20374;-67
2021/10/25 02:18:52;;;;;;;8.13;4.57;;;;;;;5.83;96.49;101702.69;2107376;28;20089;-69
2021/10/25 02:19:52;;;;;;;13.50;6.25;;;;;;;5.86;95.89;101702.69;2107333;28;20034;-67
2021/10/25 02:20:53;;;;;;;5.60;3.53;;;;;;;5.86;95.99;101692.31;2107977;28;20389;-68
2021/10/25 02:21:53;;;;;;;6.10;3.50;;;;;;;5.89;95.71;101702.63;2108009;28;20050;-68
2021/10/25 02:22:53;;;;;;;7.20;4.70;;;;;;;5.91;96.22;101695.72;2107897;28;20043;-66
2021/10/25 02:23:54;;;;;;;9.50;4.47;;;;;;;5.93;95.89;101693.94;2107727;28;20028;-67
2021/10/25 02:24:54;;;;;;;11.27;4.70;;;;;;;5.97;95.55;101693.94;2106563;28;20122;-66
2021/10/25 02:25:55;;;;;;;5.60;4.77;;;;;;;5.99;96.18;101694.78;2106397;28;20378;-66
2021/10/25 02:26:56;;;;;;;10.00;5.28;;;;;;;6.02;96.09;101692.16;2108214;28;20017;-67
2021/10/25 02:27:56;;;;;;;9.05;4.90;;;;;;;6.03;96.06;101691.28;2108150;28;20031;-66
2021/10/25 02:28:56;;;;;;;7.17;4.70;;;;;;;6.04;95.42;101685.25;2108553;28;20028;-67
2021/10/25 02:29:57;;;;;;;7.07;4.47;;;;;;;6.08;95.08;101693.84;2108678;28;20024;-66
2021/10/25 02:30:58;;;;;;;7.18;4.18;;;;;;;6.09;95.39;101693.84;2108878;28;20423;-67
2021/10/25 02:31:59;;;;;;;5.95;4.20;;;;;;;6.10;95.55;101684.34;2108320;28;20473;-67
2021/10/25 02:32:59;;;;;;;10.57;4.30;;;;;;;6.11;95.29;101697.28;2108564;28;20016;-66
2021/10/25 02:34:00;;;;;;;6.75;4.03;;;;;;;6.12;95.31;101688.63;2108196;28;20410;-66
2021/10/25 02:35:00;;;;;;;7.43;3.80;;;;;;;6.13;95.53;101684.31;2107956;28;20089;-68
2021/10/25 02:36:00;;;;;;;7.73;3.90;;;;;;;6.15;95.10;101686.00;2107261;28;20035;-66
2021/10/25 02:37:03;;;;;;;6.53;4.17;;;;;;;6.16;95.17;101679.94;2107161;28;20055;-67
2021/10/25 02:38:04;;;;;;;7.03;4.50;;;;;;;6.17;95.21;101681.66;2107788;28;20028;-67
2021/10/25 02:39:04;;;;;;;7.07;4.03;;;;;;;6.18;94.57;101673.03;2107873;28;20056;-68
2021/10/25 02:40:05;;;;;;;10.20;4.93;;;;;;;6.22;94.80;101671.25;2107897;28;20501;-68
2021/10/25 02:41:07;;;;;;;13.10;4.85;;;;;;;6.22;95.29;101673.00;2107841;28;20028;-66
2021/10/25 02:42:07;;;;;;;9.85;4.32;;;;;;;6.24;95.20;101672.09;2107813;28;20016;-67
2021/10/25 02:43:08;;;;;;;12.20;5.63;;;;;;;6.25;94.84;101676.41;2107950;28;20497;-67
2021/10/25 02:44:08;;;;;;;9.45;4.78;;;;;;;6.28;94.70;101675.50;2107149;28;20281;-67
2021/10/25 02:45:09;;;;;;;7.90;4.47;;;;;;;6.28;95.28;101662.53;2107274;28;20584;-67
2021/10/25 02:46:09;;;;;;;7.43;4.43;;;;;;;6.30;94.78;101660.81;2107785;28;20058;-69
2021/10/25 02:47:11;;;;;;;9.40;4.50;;;;;;;6.32;94.85;101659.03;2107757;28;20058;-67
2021/10/25 02:48:11;;;;;;;7.60;4.40;;;;;;;6.31;94.30;101662.50;2107788;28;20099;-68
2021/10/25 02:49:12;;;;;;;8.63;4.57;;;;;;;6.34;95.01;101656.44;2107065;28;20054;-67
2021/10/25 02:50:12;;;;;;;8.73;4.20;;;;;;;6.35;94.94;101653.81;2107232;28;20107;-65
2021/10/25 02:51:13;;;;;;;7.60;4.30;;;;;;;6.36;94.60;101649.50;2107771;28;20473;-66
2021/10/25 02:52:13;;;;;;;10.15;4.97;;;;;;;6.38;94.75;101652.94;2106981;28;20294;-67
2021/10/25 02:53:14;;;;;;;7.93;4.40;;;;;;;6.39;94.56;101650.31;2107129;28;20111;-67
2021/10/25 02:54:15;;;;;;;11.57;5.60;;;;;;;6.41;94.63;101653.75;2107687;28;20020;-68
2021/10/25 02:55:15;;;;;;;8.85;4.05;;;;;;;6.46;94.46;101660.63;2107730;28;20040;-68
2021/10/25 02:56:16;;;;;;;6.30;3.83;;;;;;;6.48;94.46;101658.84;2107738;28;20042;-68
2021/10/25 02:57:16;;;;;;;7.87;4.90;;;;;;;6.48;94.45;101648.50;2107682;28;20069;-66
2021/10/25 02:58:17;;;;;;;8.50;5.20;;;;;;;6.51;94.53;101656.22;2107763;28;20634;-67
2021/10/25 02:59:18;;;;;;;6.65;4.20;;;;;;;6.53;94.28;101655.34;2107784;28;20385;-66
2021/10/25 03:00:18;;;;;;;6.32;4.00;;;;;;;6.55;94.21;101651.00;2107695;28;20036;-66
2021/10/25 03:01:18;;;;;;;7.13;4.10;;;;;;;6.56;94.22;101644.06;2107604;28;20115;-66
2021/10/25 03:02:19;;;;;;;5.57;3.60;;;;;;;6.61;94.00;101650.06;2106976;28;20106;-68
2021/10/25 03:03:19;;;;;;;8.35;3.70;;;;;;;6.64;93.73;101647.41;2107027;28;20595;-68
2021/10/25 03:04:20;;;;;;;7.83;3.53;;;;;;;6.67;93.98;101652.56;2107609;28;20027;-67
2021/10/25 03:05:20;;;;;;;8.23;4.07;;;;;;;6.70;93.54;101646.47;2107598;28;20119;-67
2021/10/25 03:06:20;;;;;;;6.17;3.53;;;;;;;6.71;93.84;101643.03;2107576;28;20038;-68
2021/10/25 03:07:21;;;;;;;7.20;4.13;;;;;;;6.72;93.48;101651.66;2107619;28;20050;-67
2021/10/25 03:08:22;;;;;;;9.67;4.00;;;;;;;6.73;94.02;101648.16;2106971;28;20035;-66
2021/10/25 03:09:22;;;;;;;8.07;4.00;;;;;;;6.75;93.44;101642.09;2107080;28;20098;-68
2021/10/25 03:10:22;;;;;;;8.27;4.77;;;;;;;6.77;93.67;101640.31;2107592;28;20055;-66
2021/10/25 03:11:22;;;;;;;7.27;4.20;;;;;;;6.79;93.84;101637.72;2107579;28;20118;-68
2021/10/25 03:12:23;;;;;;;5.60;3.60;;;;;;;6.83;93.08;101636.78;2107417;28;20107;-68
2021/10/25 03:13:23;;;;;;;6.20;3.77;;;;;;;6.85;93.37;101636.78;2107561;28;20024;-67
2021/10/25 03:14:24;;;;;;;10.50;5.07;;;;;;;6.87;93.12;101635.88;2107679;28;20286;-67
2021/10/25 03:15:25;;;;;;;6.60;3.47;;;;;;;6.90;92.70;101638.44;2106727;28;20024;-67
2021/10/25 03:16:25;;;;;;;8.75;4.95;;;;;;;6.92;93.25;101639.25;2106948;28;20420;-68
2021/10/25 03:17:25;;;;;;;7.57;4.80;;;;;;;6.93;92.86;101640.13;2107508;28;20031;-67
2021/10/25 03:18:26;;;;;;;6.73;5.10;;;;;;;6.94;93.49;101645.28;2107302;28;20039;-67
2021/10/25 03:19:27;;;;;;;7.43;4.20;;;;;;;6.94;93.57;101642.69;2107544;28;20032;-67
2021/10/25 03:20:27;;;;;;;7.88;4.50;;;;;;;6.97;92.96;101638.34;2106828;28;20119;-68
2021/10/25 03:21:27;;;;;;;12.48;4.57;;;;;;;7.00;92.45;101636.56;2106866;28;20555;-67
2021/10/25 03:22:29;;;;;;;9.53;4.97;;;;;;;7.03;92.34;101636.50;2106825;28;20012;-67
2021/10/25 03:23:32;;;;;;;7.20;4.35;;;;;;;7.08;92.44;101639.03;2106876;28;20020;-67
2021/10/25 03:24:34;;;;;;;7.90;4.22;;;;;;;7.11;92.15;101640.75;2107330;28;20028;-67
2021/10/25 03:25:34;;;;;;;;;;;;;;;7.12;92.55;101635.50;2107869;28;20489;-67
2021/10/25 03:26:34;;;;;;;7.15;3.55;;;;;;;7.13;91.90;101641.56;2107422;28;19915;-68
2021/10/25 03:27:35;;;;;;;7.23;3.83;;;;;;;7.14;92.45;101641.53;2107498;28;20130;-66
2021/10/25 03:28:35;;;;;;;9.90;4.47;;;;;;;7.16;91.58;101636.31;2107468;28;20023;-67
2021/10/25 03:29:36;;;;;;;8.83;4.27;;;;;;;7.16;92.09;101637.19;2107485;28;20066;-65
2021/10/25 03:30:36;;;;;;;6.70;3.40;;;;;;;7.16;92.22;101634.59;2107463;28;20020;-68
2021/10/25 03:31:37;;;;;;;7.67;4.23;;;;;;;7.17;91.36;101633.72;2106859;28;20050;-67
2021/10/25 03:32:37;;;;;;;10.80;4.70;;;;;;;7.19;92.23;101642.31;2106813;28;20032;-67
2021/10/25 03:33:39;;;;;;;7.90;4.50;;;;;;;7.18;91.63;101639.75;2106739;28;20023;-66
2021/10/25 03:34:39;;;;;;;;;;;;;;;7.18;92.15;101632.81;2107201;28;20465;-66
2021/10/25 03:35:40;;;;;;;8.25;4.53;;;;;;;7.19;91.91;101636.28;2107441;28;19912;-68
2021/10/25 03:36:43;;;;;;;10.77;4.45;;;;;;;7.19;91.87;101629.34;2106672;28;20127;-67
2021/10/25 03:37:44;;;;;;;9.90;3.97;;;;;;;7.22;92.05;101636.22;2107309;28;20027;-67
2021/10/25 03:38:46;;;;;;;7.22;4.28;;;;;;;7.25;91.45;101632.75;2107347;28;20103;-66
2021/10/25 03:39:49;;;;;;;9.77;5.05;;;;;;;7.27;90.98;101633.56;2107305;28;20059;-68
2021/10/25 03:40:52;;;;;;;10.10;4.47;;;;;;;7.28;90.98;101630.94;2107276;28;20524;-67
2021/10/25 03:41:54;;;;;;;10.60;4.35;;;;;;;7.30;91.49;101628.31;2107244;28;20052;-66
2021/10/25 03:42:56;;;;;;;8.85;4.40;;;;;;;7.28;91.72;101630.94;2107386;28;20099;-69
2021/10/25 03:44:02;;;;;;;7.32;3.70;;;;;;;7.26;91.30;101627.53;2107298;28;20031;-67
2021/10/25 03:45:11;;;;;;;7.65;5.63;;;;;;;7.26;91.36;101629.25;2107308;28;20020;-67
2021/10/25 03:47:23;;;;;;;9.20;3.78;;;;;;;7.25;92.23;101630.16;2107361;28;20038;-67
2021/10/25 03:48:29;;;;;;;8.98;3.70;;;;;;;7.26;91.35;101630.13;2107194;28;20024;-66
2021/10/25 03:50:59;;;;;;;8.02;4.10;;;;;;;7.25;92.04;101628.38;2098199;28;20039;-67
2021/10/25 03:52:06;;;;;;;7.50;3.72;;;;;;;7.27;91.59;101628.38;2107068;28;20039;-68
2021/10/25 03:53:15;;;;;;;7.32;3.97;;;;;;;7.29;91.42;101626.63;2107262;28;20085;-67
2021/10/25 03:54:45;;;;;;;7.65;4.40;;;;;;;7.31;91.17;101624.84;2107285;28;20393;-67
2021/10/25 03:55:51;;;;;;;10.07;4.10;;;;;;;7.34;91.00;101627.38;2106779;28;20036;-66
2021/10/25 04:27:24;;;;;;;8.65;4.53;;;;;;;7.38;90.81;101638.56;2107004;28;20389;-67
2021/10/25 04:28:27;;;;;;;8.23;4.00;;;;;;;7.38;90.73;101636.84;2106878;28;20042;-67
2021/10/25 04:29:30;;;;;;;7.50;4.47;;;;;;;7.41;90.14;101642.00;2106903;28;20094;-68
2021/10/25 04:30:32;;;;;;;5.80;3.38;;;;;;;7.41;90.31;101631.59;2106981;28;20036;-68
2021/10/25 04:31:32;;;;;;;8.93;4.30;;;;;;;7.42;90.19;101638.50;2106671;28;20027;-67
2021/10/25 04:32:33;;;;;;;8.87;3.77;;;;;;;7.43;90.37;101636.78;2106663;28;20024;-67
2021/10/25 04:33:33;;;;;;;7.10;3.60;;;;;;;7.40;90.25;101635.09;2106891;28;20091;-67
2021/10/25 04:34:35;;;;;;;7.97;4.05;;;;;;;7.39;90.71;101628.16;2106751;28;20023;-67
2021/10/25 04:35:35;;;;;;;;;;;;;;;7.39;90.38;101633.34;2107337;28;20028;-66
2021/10/25 04:36:35;;;;;;;7.57;3.65;;;;;;;7.38;90.90;101628.19;2106153;28;19915;-67
2021/10/25 04:37:36;;;;;;;7.50;3.43;;;;;;;7.38;91.18;101633.38;2106331;28;20051;-68
2021/10/25 04:38:36;;;;;;;6.53;3.73;;;;;;;7.36;90.44;101638.63;2106912;28;20027;-67
2021/10/25 04:39:36;;;;;;;9.67;4.17;;;;;;;7.39;90.68;101633.34;2106943;28;20016;-66
2021/10/25 04:40:36;;;;;;;8.13;4.17;;;;;;;7.41;90.05;101631.59;2106891;28;20012;-67
2021/10/25 04:41:37;;;;;;;11.27;3.90;;;;;;;7.41;90.21;101631.59;2106957;28;20039;-66
2021/10/25 04:42:37;;;;;;;10.82;3.55;;;;;;;7.41;90.60;101631.59;2106962;28;20032;-67
2021/10/25 04:43:40;;;;;;;5.77;3.23;;;;;;;7.41;90.07;101631.59;2106915;28;20043;-67
2021/10/25 04:44:40;;;;;;;8.00;4.22;;;;;;;7.43;90.29;101635.00;2106917;28;20016;-66
2021/10/25 04:45:42;;;;;;;6.70;3.80;;;;;;;7.43;90.49;101635.00;2106221;28;20020;-67
2021/10/25 04:46:42;;;;;;;9.05;4.07;;;;;;;7.42;90.08;101635.03;2098041;28;20520;-67
2021/10/25 04:47:43;;;;;;;6.37;3.50;;;;;;;7.42;91.16;101637.63;2106279;28;20026;-68
2021/10/25 04:48:43;;;;;;;9.57;3.90;;;;;;;7.42;90.34;101633.31;2106182;28;20105;-67
2021/10/25 04:49:43;;;;;;;4.87;3.50;;;;;;;7.44;90.05;101631.56;2106738;28;20024;-68
2021/10/25 04:50:44;;;;;;;6.77;3.50;;;;;;;7.45;90.02;101628.06;2106926;28;20089;-67
2021/10/25 04:51:44;;;;;;;8.43;3.55;;;;;;;7.46;90.06;101639.34;2106848;28;20024;-67
2021/10/25 04:52:45;;;;;;;6.10;3.80;;;;;;;7.45;90.34;101630.66;2106848;28;20035;-68
2021/10/25 04:53:45;;;;;;;7.60;4.20;;;;;;;7.45;90.52;101637.59;2106884;28;20047;-68
2021/10/25 04:54:45;;;;;;;6.53;3.50;;;;;;;7.46;90.29;101634.97;2106853;28;20144;-67
2021/10/25 04:55:46;;;;;;;8.93;3.97;;;;;;;7.47;90.40;101636.69;2106137;28;20168;-67
2021/10/25 04:56:46;;;;;;;10.03;4.90;;;;;;;7.49;90.37;101628.03;2106232;28;20031;-66
2021/10/25 04:57:46;;;;;;;5.93;3.67;;;;;;;7.48;90.51;101627.16;2106868;28;20550;-67
2021/10/25 04:58:46;;;;;;;7.60;3.43;;;;;;;7.49;90.55;101625.44;2106171;28;20425;-67
2021/10/25 04:59:47;;;;;;;6.80;3.03;;;;;;;7.49;90.22;101628.88;2097900;28;20058;-68
2021/10/25 05:00:47;;;;;;;5.57;3.35;;;;;;;7.50;90.75;101624.53;2106197;28;20022;-67
2021/10/25 05:01:47;;;;;;;7.03;4.00;;;;;;;7.50;90.55;101627.13;2106779;28;20462;-67
2021/10/25 05:02:48;;;;;;;7.00;3.60;;;;;;;7.49;90.34;101617.63;2106842;28;20027;-67
2021/10/25 05:03:48;;;;;;;4.77;3.77;;;;;;;7.50;90.59;101614.16;2106865;28;20024;-68
2021/10/25 05:04:48;;;;;;;6.93;3.65;;;;;;;7.50;90.54;101619.34;2106847;28;20012;-67
2021/10/25 05:05:49;;;;;;;5.50;3.87;;;;;;;7.49;90.64;101618.47;2106692;28;20080;-67
2021/10/25 05:06:49;;;;;;;10.68;4.30;;;;;;;7.51;90.73;101619.31;2106761;28;20020;-67
2021/10/25 05:07:50;;;;;;;6.20;4.10;;;;;;;7.51;89.97;101615.84;2105900;28;20100;-67
2021/10/25 05:08:50;;;;;;;8.40;4.23;;;;;;;7.53;90.36;101614.09;2106421;28;20266;-66
2021/10/25 05:09:50;;;;;;;6.77;3.97;;;;;;;7.54;89.74;101621.00;2106195;28;20053;-69
2021/10/25 05:10:50;;;;;;;7.43;4.33;;;;;;;7.55;90.10;101622.72;2106096;28;20043;-68
2021/10/25 05:11:51;;;;;;;5.07;3.77;;;;;;;7.55;89.83;101608.00;2106736;28;20036;-67
2021/10/25 05:12:51;;;;;;;7.03;3.60;;;;;;;7.57;89.61;101616.59;2106674;28;20077;-67
2021/10/25 05:13:51;;;;;;;5.87;3.67;;;;;;;7.58;90.05;101612.28;2106621;28;20032;-67
2021/10/25 05:14:52;;;;;;;6.20;3.50;;;;;;;7.57;90.23;101608.81;2106727;28;20027;-67
2021/10/25 05:15:52;;;;;;;6.67;3.90;;;;;;;7.57;90.29;101608.81;2106691;28;20039;-67
2021/10/25 05:16:52;;;;;;;7.77;3.83;;;;;;;7.58;90.21;101612.28;2106754;28;20024;-66
2021/10/25 05:17:52;;;;;;;6.07;3.40;;;;;;;7.56;90.65;101611.47;2106638;28;20024;-67
2021/10/25 05:18:53;;;;;;;7.93;4.00;;;;;;;7.56;90.26;101609.69;2106674;28;20024;-67